createdAt,value
2022-08-29T05:35:25.435Z,101804.53
2022-08-29T05:55:21.565Z,101815.47
2022-08-29T05:58:09.185Z,101824.59
2022-08-29T06:01:01.282Z,101817.94
2022-08-29T06:03:49.743Z,101816.56
2022-08-29T06:06:37.014Z,101826.53
2022-08-29T06:09:41.128Z,101831.44
2022-08-29T06:12:38.361Z,101822.88
2022-08-29T06:15:30.268Z,101832.09
2022-08-29T06:18:18.445Z,101832.59
2022-08-29T06:21:11.818Z,101833.84
2022-08-29T06:23:59.884Z,101838.28
2022-08-29T06:29:57.337Z,101832.59
2022-08-29T06:32:47.353Z,101846.72
2022-08-29T06:35:34.038Z,101847.66
2022-08-29T06:38:21.007Z,101848.78
2022-08-29T06:41:09.399Z,101859.53
2022-08-29T06:43:58.665Z,101863.59
2022-08-29T06:46:49.188Z,101854.34
2022-08-29T06:49:36.137Z,101846.47
2022-08-29T06:52:31.627Z,101845.59
2022-08-29T06:55:24.164Z,101846.84
2022-08-29T06:58:13.286Z,101845.38
2022-08-29T07:04:14.670Z,101858.91
2022-08-29T07:07:02.706Z,101860.50
2022-08-29T07:09:50.874Z,101852.66
2022-08-29T07:21:02.892Z,101848.72
2022-08-29T07:23:51.344Z,101838.19
2022-08-29T07:26:45.182Z,101841.84
2022-08-29T07:29:50.888Z,101841.59
2022-08-29T07:32:42.785Z,101839.00
2022-08-29T07:35:31.020Z,101843.25
2022-08-29T07:38:26.103Z,101850.69
2022-08-29T07:41:40.502Z,101853.22
2022-08-29T07:44:39.943Z,101850.34
2022-08-29T07:50:50.554Z,101858.28
2022-08-29T07:53:38.760Z,101862.97
2022-08-29T08:00:52.564Z,101872.38
2022-08-29T08:03:53.520Z,101865.69
2022-08-29T08:11:14.080Z,101876.63
2022-08-29T08:14:04.952Z,101879.59
2022-08-29T08:16:52.090Z,101894.78
2022-08-29T08:19:39.503Z,101896.25
2022-08-29T08:22:26.708Z,101900.47
2022-08-29T08:25:14.146Z,101892.28
2022-08-29T08:28:00.869Z,101898.91
2022-08-29T08:33:55.662Z,101898.81
2022-08-29T08:36:47.516Z,101898.31
2022-08-29T08:39:34.693Z,101882.78
2022-08-29T08:42:32.915Z,101894.34
2022-08-29T08:46:04.349Z,101878.44
2022-08-29T08:48:53.075Z,101901.06
2022-08-29T08:51:56.933Z,101898.63
2022-08-29T08:54:52.419Z,101890.28
2022-08-29T08:57:46.989Z,101892.16
2022-08-29T09:00:46.213Z,101898.97
2022-08-29T09:04:14.448Z,101898.47
2022-08-29T09:14:02.666Z,101909.19
2022-08-29T09:17:14.012Z,101904.59
2022-08-29T09:20:02.902Z,101903.63
2022-08-29T09:23:11.810Z,101910.09
2022-08-29T09:27:09.720Z,101913.22
2022-08-29T09:30:03.084Z,101911.31
2022-08-29T09:37:05.462Z,101906.56
2022-08-29T09:39:59.272Z,101904.66
2022-08-29T09:43:01.378Z,101908.31
2022-08-29T09:46:21.287Z,101913.63
2022-08-29T09:49:14.874Z,101919.44
2022-08-29T09:52:15.326Z,101914.94
2022-08-29T09:55:41.573Z,101918.81
2022-08-29T09:58:39.676Z,101914.63
2022-08-29T10:01:28.190Z,101922.53
2022-08-29T10:04:40.060Z,101924.59
2022-08-29T10:07:42.698Z,101919.13
2022-08-29T10:41:47.118Z,101927.75
2022-08-29T10:48:10.216Z,101923.03
2022-08-29T10:54:40.910Z,101938.47
2022-08-29T10:57:50.765Z,101942.72
2022-08-29T11:00:45.947Z,101945.72
2022-08-29T11:03:40.550Z,101940.25
2022-08-29T11:10:05.092Z,101939.28
2022-08-29T11:43:12.236Z,101951.13
2022-08-29T11:51:01.936Z,101947.28
2022-08-29T12:03:30.935Z,101951.75
2022-08-29T12:07:10.300Z,101957.41
2022-08-29T12:10:04.297Z,101962.09
2022-08-29T12:13:03.709Z,101964.63
2022-08-29T12:15:56.624Z,101965.16
2022-08-29T12:19:08.452Z,101970.66
2022-08-29T13:39:47.877Z,101987.34
2022-08-29T13:59:45.251Z,101967.03
2022-08-29T14:03:27.349Z,101975.91
2022-08-29T14:10:26.268Z,101968.84
2022-08-29T15:02:20.196Z,101973.31
2022-08-29T15:09:40.123Z,101967.31
2022-08-29T15:12:35.994Z,101970.72
2022-08-29T15:15:30.154Z,101968.38
2022-08-29T15:19:33.703Z,101977.06
2022-08-29T15:22:02.714Z,101976.78
2022-08-29T15:24:56.647Z,101965.00
2022-08-29T15:27:48.546Z,101971.38
2022-08-29T15:34:47.897Z,101970.31
2022-08-29T15:37:37.124Z,101978.47
2022-08-29T15:40:28.367Z,101977.88
2022-08-29T15:46:53.860Z,101969.03
2022-08-29T15:52:56.189Z,101968.88
2022-08-29T15:55:47.581Z,101970.09
2022-08-29T16:02:48.322Z,101968.63
2022-08-29T16:05:47.782Z,101963.19
2022-08-29T16:41:56.069Z,101977.69
2022-08-29T16:45:22.061Z,101983.91
2022-08-29T16:48:17.684Z,101975.34
2022-08-29T16:51:18.983Z,101987.44
2022-08-29T16:54:06.789Z,101982.66
2022-08-29T16:56:57.520Z,101977.69
2022-08-29T16:59:44.206Z,101980.16
2022-08-29T17:05:45.725Z,101973.88
2022-08-29T17:08:31.354Z,101970.81
2022-08-29T17:14:23.505Z,101974.63
2022-08-29T17:20:38.690Z,101967.66
2022-08-29T17:26:33.342Z,101974.56
2022-08-29T17:32:38.182Z,101985.38
2022-08-29T17:38:33.637Z,101990.03
2022-08-29T17:44:29.694Z,101986.69
2022-08-29T17:50:43.717Z,101990.91
2022-08-29T17:59:52.743Z,101996.13
2022-08-29T18:05:48.549Z,101992.19
2022-08-29T18:11:51.502Z,101990.91
2022-08-29T18:17:50.085Z,101996.19
2022-08-29T18:23:52.109Z,101996.06
2022-08-29T18:29:49.000Z,102007.50
2022-08-29T18:35:41.709Z,101999.56
2022-08-29T20:14:26.137Z,102037.50
2022-08-29T20:17:30.632Z,102029.84
2022-08-29T20:20:31.476Z,102033.34
2022-08-29T20:23:22.916Z,102046.41
2022-08-29T20:26:15.228Z,102042.09
2022-08-29T20:29:07.403Z,102041.97
2022-08-29T20:31:58.112Z,102046.31
2022-08-29T20:35:04.933Z,102053.16
2022-08-29T20:37:56.372Z,102044.28
2022-08-29T20:40:48.249Z,102044.16
2022-08-29T20:43:39.127Z,102051.00
2022-08-29T20:46:26.156Z,102055.34
2022-08-29T20:49:17.540Z,102053.50
2022-08-29T20:52:06.868Z,102051.72
2022-08-29T20:58:24.882Z,102058.53
2022-08-29T21:01:17.403Z,102053.28
2022-08-29T21:04:30.475Z,102054.22
2022-08-29T21:08:43.502Z,102055.06
2022-08-29T21:13:08.136Z,102055.13
2022-08-29T21:19:56.033Z,102048.41
2022-08-29T21:22:48.278Z,102049.44
2022-08-29T21:25:37.233Z,102050.47
2022-08-29T21:28:26.329Z,102062.81
2022-08-29T21:31:17.245Z,102055.06
2022-08-29T21:34:07.150Z,102060.34
2022-08-29T21:36:54.689Z,102061.19
2022-08-29T21:39:45.737Z,102067.19
2022-08-29T21:42:34.831Z,102059.22
2022-08-29T21:45:23.405Z,102059.09
2022-08-29T21:48:12.549Z,102060.84
2022-08-29T21:51:00.145Z,102059.97
2022-08-29T21:53:49.789Z,102058.22
2022-08-29T21:56:37.675Z,102063.47
2022-08-29T21:59:28.451Z,102072.19
2022-08-29T22:05:24.235Z,102067.19
2022-08-29T22:08:14.042Z,102065.59
2022-08-29T22:11:01.360Z,102055.31
2022-08-29T22:13:49.137Z,102064.09
2022-08-29T22:16:44.940Z,102068.44
2022-08-29T22:19:36.338Z,102062.41
2022-08-29T22:22:24.985Z,102064.19
2022-08-29T22:25:12.011Z,102061.59
2022-08-29T22:27:59.396Z,102060.75
2022-08-29T22:30:47.064Z,102064.22
2022-08-29T22:33:35.534Z,102065.06
2022-08-29T22:36:22.741Z,102058.97
2022-08-29T22:39:15.715Z,102055.50
2022-08-29T22:42:03.652Z,102052.06
2022-08-29T22:45:10.225Z,102052.09
2022-08-29T22:47:59.216Z,102057.38
2022-08-29T22:50:51.980Z,102047.81
2022-08-29T22:54:06.682Z,102049.53
2022-08-29T22:56:55.461Z,102051.22
2022-08-29T22:59:45.384Z,102050.34
2022-08-29T23:05:38.114Z,102056.34
2022-08-29T23:11:31.824Z,102063.13
2022-08-29T23:14:21.878Z,102066.50
2022-08-29T23:17:10.246Z,102060.28
2022-08-29T23:19:56.946Z,102067.19
2022-08-29T23:22:45.740Z,102067.13
2022-08-29T23:25:33.131Z,102067.91
2022-08-29T23:28:21.398Z,102061.78
2022-08-29T23:31:10.801Z,102068.72
2022-08-29T23:33:58.164Z,102063.50
2022-08-29T23:36:46.844Z,102071.38
2022-08-29T23:39:33.963Z,102069.63
2022-08-29T23:42:22.273Z,102068.78
2022-08-29T23:45:11.490Z,102071.38
2022-08-29T23:48:00.743Z,102068.78
2022-08-29T23:50:49.035Z,102069.66
2022-08-29T23:56:42.576Z,102068.00
2022-08-29T23:59:47.494Z,102077.63
